Point Reyes Station, California
Current Conditions -  °F | °C
As of 7:55 AM on Friday 28 Nov 2014 (Local Time) from KDVO Reporting Station
Overcast Overcast  
Wind Chill: 45°   Ceiling: 100
Heat Index: 45°   Visibility: NA
Dew Point: 45°   Wind: 0mph
Humidity: 100%   Direction: NA
Pressure: 30.03"   Gusts: NA
Location:  38.07°N, 122.81°W
Report Text: KDVO 281555Z AUTO 00000KT OVC001 07/07 A3003 RMK AO2
Loading
Personal Weather Stations






























Interactive Weather Map New forecast layout! Learn more

10-Day Weather Forecast

Advertisements
Track Severe Weather on mobile